Time,TemperatureF,DewpointF,PressureIn,WindDirection,WindDirectionDegrees,WindSpeedMPH,WindSpeedGustMPH,Humidity,HourlyPrecipIn,Conditions,Clouds,dailyrainin,SoftwareType,DateUTC
2013-02-01 00:03:00,33.0,22.0,29.86,SW,222,3.0,9.0,63,0.00,,,0.02,,2013-02-01 05:03:00,
2013-02-01 00:12:00,33.0,22.0,29.86,SW,222,3.0,9.0,63,0.00,,,0.02,,2013-02-01 05:12:00,
2013-02-01 00:22:00,33.0,22.0,29.86,SW,229,5.0,9.0,64,0.00,,,0.02,,2013-02-01 05:22:00,
2013-02-01 00:32:00,33.0,23.0,29.86,WSW,252,4.0,14.0,65,0.00,,,0.02,,2013-02-01 05:32:00,
2013-02-01 00:42:00,33.0,23.0,29.86,WSW,252,4.0,14.0,65,0.00,,,0.02,,2013-02-01 05:42:00,
2013-02-01 00:52:00,33.0,23.0,29.85,SSE,160,5.0,18.0,66,0.00,,,0.02,,2013-02-01 05:52:00,
2013-02-01 01:02:00,34.0,24.0,29.84,WSW,246,9.0,21.0,67,0.00,,,0.01,,2013-02-01 06:02:00,
2013-02-01 01:11:00,34.0,23.0,29.83,SW,222,13.0,22.0,65,0.00,,,0.01,,2013-02-01 06:11:00,
2013-02-01 01:22:00,34.0,23.0,29.83,SW,222,13.0,22.0,65,0.00,,,0.01,,2013-02-01 06:22:00,
2013-02-01 01:32:00,34.0,24.0,29.81,WSW,246,10.0,22.0,66,0.00,,,0.01,,2013-02-01 06:32:00,
2013-02-01 01:42:00,34.0,24.0,29.81,WSW,246,10.0,22.0,66,0.00,,,0.01,,2013-02-01 06:42:00,
2013-02-01 01:52:00,35.0,25.0,29.81,SW,234,7.0,28.0,66,0.00,,,0.01,,2013-02-01 06:52:00,
2013-02-01 02:02:00,35.0,25.0,29.80,SW,224,7.0,30.0,66,0.00,,,0.01,,2013-02-01 07:02:00,
2013-02-01 02:12:00,35.0,25.0,29.80,SW,224,7.0,30.0,66,0.00,,,0.01,,2013-02-01 07:12:00,
2013-02-01 02:22:00,35.0,25.0,29.80,SW,224,7.0,30.0,66,0.00,,,0.01,,2013-02-01 07:22:00,
2013-02-01 02:32:00,35.0,25.0,29.80,SW,224,7.0,30.0,66,0.00,,,0.01,,2013-02-01 07:32:00,
2013-02-01 02:42:00,35.0,25.0,29.80,SW,224,7.0,30.0,66,0.00,,,0.01,,2013-02-01 07:42:00,
2013-02-01 02:52:00,36.0,26.0,29.77,NW,308,8.0,25.0,66,0.00,,,0.00,,2013-02-01 07:52:00,
2013-02-01 03:01:00,36.0,26.0,29.77,NW,308,8.0,25.0,66,0.00,,,0.00,,2013-02-01 08:01:00,
2013-02-01 03:11:00,36.0,26.0,29.77,NW,308,8.0,25.0,66,0.00,,,0.00,,2013-02-01 08:11:00,
2013-02-01 03:21:00,36.0,26.0,29.75,SW,233,8.0,32.0,68,0.00,,,0.00,,2013-02-01 08:21:00,
2013-02-01 03:32:00,37.0,27.0,29.75,WSW,255,9.0,28.0,68,0.00,,,0.00,,2013-02-01 08:32:00,
2013-02-01 03:42:00,37.0,27.0,29.75,WSW,255,9.0,28.0,68,0.00,,,0.00,,2013-02-01 08:42:00,
2013-02-01 03:52:00,37.0,27.0,29.75,WSW,255,9.0,28.0,68,0.00,,,0.00,,2013-02-01 08:52:00,
2013-02-01 04:01:00,37.0,27.0,29.75,WSW,257,11.0,32.0,68,0.00,,,0.00,,2013-02-01 09:01:00,
2013-02-01 04:11:00,37.0,27.0,29.75,WSW,257,11.0,32.0,68,0.00,,,0.00,,2013-02-01 09:11:00,
2013-02-01 04:21:00,37.0,29.0,29.77,ENE,69,9.0,28.0,72,0.00,,,0.00,,2013-02-01 09:21:00,
2013-02-01 04:32:00,33.0,29.0,29.78,North,351,7.0,20.0,85,0.00,,,0.00,,2013-02-01 09:32:00,
2013-02-01 04:42:00,33.0,29.0,29.78,North,351,7.0,20.0,85,0.00,,,0.00,,2013-02-01 09:42:00,
2013-02-01 04:52:00,33.0,30.0,29.80,North,5,7.0,17.0,87,0.00,,,0.00,,2013-02-01 09:52:00,
2013-02-01 05:01:00,32.0,29.0,29.83,ENE,77,5.0,18.0,88,0.00,,,0.00,,2013-02-01 10:01:00,
2013-02-01 05:11:00,32.0,29.0,29.83,ENE,77,5.0,18.0,88,0.00,,,0.00,,2013-02-01 10:11:00,
2013-02-01 05:21:00,31.0,27.0,29.86,East,90,6.0,15.0,85,0.00,,,0.00,,2013-02-01 10:21:00,
2013-02-01 05:32:00,31.0,27.0,29.86,East,90,6.0,15.0,85,0.00,,,0.00,,2013-02-01 10:32:00,
2013-02-01 05:42:00,29.0,24.0,29.89,East,81,6.0,18.0,80,0.00,,,0.00,,2013-02-01 10:42:00,
2013-02-01 05:53:00,29.0,24.0,29.89,East,81,6.0,18.0,80,0.00,,,0.00,,2013-02-01 10:53:00,
2013-02-01 06:02:00,28.0,22.0,29.90,NW,325,10.0,21.0,77,0.00,,,0.00,,2013-02-01 11:02:00,
2013-02-01 06:11:00,28.0,22.0,29.90,NW,325,10.0,21.0,77,0.00,,,0.00,,2013-02-01 11:11:00,
2013-02-01 06:22:00,28.0,22.0,29.90,NW,325,10.0,21.0,77,0.00,,,0.00,,2013-02-01 11:22:00,
2013-02-01 06:32:00,26.0,18.0,29.94,North,0,12.0,26.0,71,0.00,,,0.00,,2013-02-01 11:32:00,
2013-02-01 06:42:00,26.0,18.0,29.94,North,0,12.0,26.0,71,0.00,,,0.00,,2013-02-01 11:42:00,
2013-02-01 06:53:00,25.0,15.0,29.94,North,359,12.0,29.0,65,0.00,,,0.00,,2013-02-01 11:53:00,
2013-02-01 07:03:00,24.0,14.0,29.96,North,4,6.0,22.0,65,0.00,,,0.00,,2013-02-01 12:03:00,
2013-02-01 07:12:00,24.0,14.0,29.96,North,4,6.0,22.0,65,0.00,,,0.00,,2013-02-01 12:12:00,
2013-02-01 07:22:00,24.0,15.0,29.97,NNE,21,6.0,16.0,68,0.00,,,0.00,,2013-02-01 12:22:00,
2013-02-01 07:32:00,24.0,15.0,29.99,ENE,61,6.0,15.0,68,0.00,,,0.00,,2013-02-01 12:32:00,
2013-02-01 07:42:00,24.0,15.0,29.99,ENE,61,6.0,15.0,68,0.00,,,0.00,,2013-02-01 12:42:00,
2013-02-01 07:52:00,23.0,15.0,30.01,NE,35,5.0,22.0,70,0.00,,,0.00,,2013-02-01 12:52:00,
2013-02-01 08:02:00,23.0,15.0,30.01,NE,35,5.0,22.0,70,0.00,,,0.00,,2013-02-01 13:02:00,
2013-02-01 08:11:00,23.0,15.0,30.01,NE,35,5.0,22.0,70,0.00,,,0.00,,2013-02-01 13:11:00,
2013-02-01 08:22:00,23.0,16.0,30.04,ESE,112,4.0,15.0,75,0.00,,,0.00,,2013-02-01 13:22:00,
2013-02-01 08:33:00,23.0,17.0,30.06,NE,55,3.0,10.0,76,0.00,,,0.00,,2013-02-01 13:33:00,
2013-02-01 08:43:00,23.0,17.0,30.06,NE,55,3.0,10.0,76,0.00,,,0.00,,2013-02-01 13:43:00,
2013-02-01 08:53:00,23.0,16.0,30.06,ENE,63,3.0,20.0,73,0.00,,,0.00,,2013-02-01 13:53:00,
2013-02-01 09:03:00,24.0,16.0,30.07,NE,40,8.0,20.0,70,0.00,,,0.00,,2013-02-01 14:03:00,
2013-02-01 09:11:00,24.0,14.0,30.08,NNE,23,9.0,24.0,65,0.00,,,0.00,,2013-02-01 14:11:00,
2013-02-01 09:22:00,24.0,14.0,30.08,NNE,23,9.0,24.0,65,0.00,,,0.00,,2013-02-01 14:22:00,
2013-02-01 09:32:00,24.0,14.0,30.08,NNE,23,9.0,24.0,65,0.00,,,0.00,,2013-02-01 14:32:00,
2013-02-01 09:42:00,25.0,14.0,30.11,ENE,59,7.0,20.0,62,0.00,,,0.00,,2013-02-01 14:42:00,
2013-02-01 09:53:00,25.0,14.0,30.11,ENE,59,7.0,20.0,62,0.00,,,0.00,,2013-02-01 14:53:00,
2013-02-01 10:02:00,25.0,13.0,30.11,NE,52,9.0,28.0,60,0.00,,,0.00,,2013-02-01 15:02:00,
2013-02-01 10:12:00,25.0,13.0,30.11,NE,52,9.0,28.0,60,0.00,,,0.00,,2013-02-01 15:12:00,
2013-02-01 10:22:00,25.0,13.0,30.11,NE,52,9.0,28.0,60,0.00,,,0.00,,2013-02-01 15:22:00,
2013-02-01 10:33:00,25.0,12.0,30.13,NE,40,10.0,29.0,58,0.00,,,0.00,,2013-02-01 15:33:00,
2013-02-01 10:42:00,25.0,12.0,30.13,NE,40,10.0,29.0,58,0.00,,,0.00,,2013-02-01 15:42:00,
2013-02-01 10:52:00,26.0,13.0,30.14,NNE,32,7.0,21.0,58,0.00,,,0.00,,2013-02-01 15:52:00,
2013-02-01 11:03:00,28.0,15.0,30.14,NE,36,6.0,16.0,57,0.00,,,0.00,,2013-02-01 16:03:00,
2013-02-01 11:33:00,29.0,15.0,30.16,ENE,61,3.0,14.0,55,0.00,,,0.00,,2013-02-01 16:33:00,
2013-02-01 11:43:00,30.0,15.0,30.16,NE,53,6.0,17.0,54,0.00,,,0.00,,2013-02-01 16:43:00,
2013-02-01 11:53:00,30.0,15.0,30.16,NE,53,6.0,17.0,54,0.00,,,0.00,,2013-02-01 16:53:00,
2013-02-01 12:03:00,29.0,13.0,30.17,NNE,29,9.0,22.0,51,0.00,,,0.00,,2013-02-01 17:03:00,
2013-02-01 12:12:00,30.0,14.0,30.17,NNE,15,6.0,15.0,51,0.00,,,0.00,,2013-02-01 17:12:00,
2013-02-01 12:22:00,30.0,14.0,30.17,NNE,15,6.0,15.0,51,0.00,,,0.00,,2013-02-01 17:22:00,
2013-02-01 12:32:00,31.0,15.0,30.18,North,1,9.0,18.0,51,0.00,,,0.00,,2013-02-01 17:32:00,
2013-02-01 13:03:00,32.0,15.0,30.17,NW,325,10.0,20.0,49,0.00,,,0.00,,2013-02-01 18:03:00,
2013-02-01 13:23:00,32.0,15.0,30.16,NNE,16,6.0,18.0,48,0.00,,,0.00,,2013-02-01 18:23:00,
2013-02-01 13:32:00,33.0,15.0,30.16,East,79,5.0,15.0,47,0.00,,,0.00,,2013-02-01 18:32:00,
2013-02-01 13:53:00,34.0,15.0,30.16,NNE,30,8.0,18.0,46,0.00,,,0.00,,2013-02-01 18:53:00,
2013-02-01 14:03:00,35.0,16.0,30.15,NE,41,7.0,21.0,46,0.00,,,0.00,,2013-02-01 19:03:00,
2013-02-01 14:21:00,35.0,16.0,30.16,ENE,71,6.0,20.0,45,0.00,,,0.00,,2013-02-01 19:21:00,
2013-02-01 14:32:00,36.0,16.0,30.16,NNE,27,4.0,16.0,44,0.00,,,0.00,,2013-02-01 19:32:00,
2013-02-01 14:52:00,36.0,16.0,30.16,NE,41,5.0,22.0,43,0.00,,,0.00,,2013-02-01 19:52:00,
2013-02-01 15:02:00,36.0,15.0,30.16,East,88,4.0,12.0,42,0.00,,,0.00,,2013-02-01 20:02:00,
2013-02-01 15:11:00,37.0,16.0,30.17,ENE,74,8.0,15.0,41,0.00,,,0.00,,2013-02-01 20:11:00,
2013-02-01 15:21:00,37.0,16.0,30.17,ENE,74,8.0,15.0,41,0.00,,,0.00,,2013-02-01 20:21:00,
2013-02-01 15:32:00,36.0,15.0,30.18,NNW,348,7.0,14.0,41,0.00,,,0.00,,2013-02-01 20:32:00,
2013-02-01 15:42:00,36.0,14.0,30.17,ENE,75,5.0,21.0,40,0.01,,,0.01,,2013-02-01 20:42:00,
2013-02-01 15:52:00,36.0,14.0,30.17,ENE,75,5.0,21.0,40,0.01,,,0.01,,2013-02-01 20:52:00,
2013-02-01 16:22:00,35.0,13.0,30.19,NE,43,5.0,16.0,40,0.01,,,0.01,,2013-02-01 21:22:00,
2013-02-01 16:32:00,34.0,12.0,30.19,NE,48,5.0,14.0,40,0.01,,,0.01,,2013-02-01 21:32:00,
2013-02-01 17:02:00,31.0,11.0,30.20,East,83,1.0,12.0,42,0.00,,,0.01,,2013-02-01 22:02:00,
2013-02-01 17:11:00,31.0,11.0,30.20,East,83,1.0,12.0,42,0.00,,,0.01,,2013-02-01 22:11:00,
2013-02-01 17:22:00,31.0,11.0,30.20,East,83,1.0,12.0,42,0.00,,,0.01,,2013-02-01 22:22:00,
2013-02-01 17:32:00,28.0,9.0,30.21,NNE,26,3.0,14.0,44,0.00,,,0.01,,2013-02-01 22:32:00,
2013-02-01 17:42:00,28.0,9.0,30.21,NNE,26,3.0,14.0,44,0.00,,,0.01,,2013-02-01 22:42:00,
2013-02-01 17:52:00,28.0,9.0,30.22,NNE,15,3.0,10.0,45,0.00,,,0.01,,2013-02-01 22:52:00,
2013-02-01 18:02:00,27.0,9.0,30.23,North,349,2.0,15.0,46,0.00,,,0.01,,2013-02-01 23:02:00,
2013-02-01 18:11:00,27.0,9.0,30.23,North,349,2.0,15.0,46,0.00,,,0.01,,2013-02-01 23:11:00,
2013-02-01 18:21:00,27.0,9.0,30.23,North,349,2.0,15.0,46,0.00,,,0.01,,2013-02-01 23:21:00,
2013-02-01 18:32:00,26.0,9.0,30.24,NNW,329,1.0,5.0,48,0.00,,,0.01,,2013-02-01 23:32:00,
2013-02-01 18:42:00,26.0,9.0,30.24,NNW,329,1.0,5.0,48,0.00,,,0.01,,2013-02-01 23:42:00,
2013-02-01 18:52:00,26.0,9.0,30.24,North,357,0.0,3.0,49,0.00,,,0.01,,2013-02-01 23:52:00,
2013-02-01 19:02:00,26.0,10.0,30.24,NNE,21,2.0,6.0,50,0.00,,,0.01,,2013-02-02 00:02:00,
2013-02-01 19:11:00,26.0,10.0,30.24,NNE,21,2.0,6.0,50,0.00,,,0.01,,2013-02-02 00:11:00,
2013-02-01 19:21:00,26.0,10.0,30.24,NNE,21,2.0,6.0,50,0.00,,,0.01,,2013-02-02 00:21:00,
2013-02-01 19:32:00,25.0,9.0,30.25,NNE,14,1.0,8.0,51,0.00,,,0.01,,2013-02-02 00:32:00,
2013-02-01 19:42:00,25.0,9.0,30.25,NNE,14,1.0,8.0,51,0.00,,,0.01,,2013-02-02 00:42:00,
2013-02-01 19:52:00,25.0,9.0,30.25,West,277,2.0,9.0,51,0.00,,,0.01,,2013-02-02 00:52:00,
2013-02-01 20:02:00,25.0,9.0,30.26,NW,321,3.0,7.0,51,0.00,,,0.01,,2013-02-02 01:02:00,
2013-02-01 20:11:00,25.0,9.0,30.26,NW,321,3.0,7.0,51,0.00,,,0.01,,2013-02-02 01:11:00,
2013-02-01 20:21:00,25.0,9.0,30.26,NW,321,3.0,7.0,51,0.00,,,0.01,,2013-02-02 01:21:00,
2013-02-01 20:32:00,24.0,9.0,30.27,ENE,70,3.0,8.0,51,0.00,,,0.01,,2013-02-02 01:32:00,
2013-02-01 20:42:00,24.0,9.0,30.27,ENE,70,3.0,8.0,51,0.00,,,0.01,,2013-02-02 01:42:00,
2013-02-01 20:52:00,24.0,9.0,30.27,ENE,70,3.0,8.0,51,0.00,,,0.01,,2013-02-02 01:52:00,
2013-02-01 21:01:00,24.0,9.0,30.28,NNE,13,2.0,7.0,53,0.00,,,0.01,,2013-02-02 02:01:00,
2013-02-01 21:11:00,24.0,9.0,30.28,NNE,13,2.0,7.0,53,0.00,,,0.01,,2013-02-02 02:11:00,
2013-02-01 21:22:00,24.0,9.0,30.28,NNE,13,2.0,7.0,53,0.00,,,0.01,,2013-02-02 02:22:00,
2013-02-01 21:32:00,24.0,9.0,30.28,NNE,13,2.0,7.0,53,0.00,,,0.01,,2013-02-02 02:32:00,
2013-02-01 21:42:00,24.0,9.0,30.28,NNE,13,2.0,7.0,53,0.00,,,0.01,,2013-02-02 02:42:00,
2013-02-01 21:52:00,23.0,9.0,30.29,NE,39,1.0,7.0,55,0.00,,,0.01,,2013-02-02 02:52:00,
2013-02-01 22:02:00,23.0,9.0,30.30,NE,56,0.0,6.0,55,0.00,,,0.01,,2013-02-02 03:02:00,
2013-02-01 22:11:00,23.0,9.0,30.30,NE,56,0.0,6.0,55,0.00,,,0.01,,2013-02-02 03:11:00,
2013-02-01 22:22:00,23.0,9.0,30.30,NE,56,0.0,6.0,55,0.00,,,0.01,,2013-02-02 03:22:00,
2013-02-01 22:32:00,23.0,9.0,30.29,NE,45,0.0,0.0,55,0.00,,,0.01,,2013-02-02 03:32:00,
2013-02-01 22:42:00,23.0,10.0,30.30,NE,45,0.0,0.0,56,0.00,,,0.01,,2013-02-02 03:42:00,
2013-02-01 22:52:00,23.0,10.0,30.30,NE,45,0.0,0.0,56,0.00,,,0.01,,2013-02-02 03:52:00,
2013-02-01 23:02:00,22.0,9.0,30.30,NNE,14,2.0,6.0,56,0.00,,,0.01,,2013-02-02 04:02:00,
2013-02-01 23:11:00,22.0,9.0,30.30,NNE,14,2.0,6.0,56,0.00,,,0.01,,2013-02-02 04:11:00,
2013-02-01 23:21:00,22.0,10.0,30.29,NNE,13,0.0,0.0,58,0.00,,,0.01,,2013-02-02 04:21:00,
2013-02-01 23:32:00,22.0,9.0,30.29,NNE,13,0.0,0.0,57,0.00,,,0.01,,2013-02-02 04:32:00,
2013-02-01 23:42:00,22.0,9.0,30.29,NNE,13,0.0,0.0,57,0.00,,,0.01,,2013-02-02 04:42:00,
2013-02-01 23:52:00,22.0,9.0,30.29,NNE,13,0.0,0.0,57,0.00,,,0.01,,2013-02-02 04:52:00,